Batteau, Canada
Current Conditions -  °F | °C
As of 12:00 AM on Thursday 23 Oct 2014 (Local Time) from CWCA Reporting Station
Few Clouds Few Clouds  
Wind Chill: 29°   Ceiling: Unl
Heat Index: 37°   Visibility: 15mi
Dew Point: 28°   Wind: 15mph
Humidity: 70%   Direction: 230°SW
Pressure: 30.26"   Gusts: 23mph
Location:  53.4°N, 55.78°W
Report Text: CWCA 230300Z 23013G20KT 15SM FEW200 03/M02 A3026 RMK CI1 TR CI SLP248
Loading
Personal Weather Stations






























Interactive Weather Map
Tropical Storm Tracking
New forecast layout! Learn more

10-Day Weather Forecast

Advertisements
Track Severe Weather on mobile